sensor_id;sensor_type;location;lat;lon;timestamp;P1;durP1;ratioP1;P2;durP2;ratioP2
5752;SDS011;2901;42.140;24.760;2024-03-23T00:55:22;6.27;;;5.60;;
5752;SDS011;2901;42.140;24.760;2024-03-23T00:57:48;5.97;;;5.45;;
5752;SDS011;2901;42.140;24.760;2024-03-23T01:00:13;7.03;;;5.43;;
5752;SDS011;2901;42.140;24.760;2024-03-23T01:02:39;8.20;;;6.07;;
5752;SDS011;2901;42.140;24.760;2024-03-23T01:05:04;7.10;;;5.87;;
5752;SDS011;2901;42.140;24.760;2024-03-23T01:07:30;6.77;;;5.53;;
5752;SDS011;2901;42.140;24.760;2024-03-23T01:09:55;9.53;;;5.73;;
5752;SDS011;2901;42.140;24.760;2024-03-23T01:12:21;5.83;;;5.33;;
5752;SDS011;2901;42.140;24.760;2024-03-23T01:14:46;6.57;;;5.97;;
5752;SDS011;2901;42.140;24.760;2024-03-23T01:17:12;7.07;;;6.37;;
5752;SDS011;2901;42.140;24.760;2024-03-23T01:19:37;7.40;;;6.13;;
5752;SDS011;2901;42.140;24.760;2024-03-23T01:22:04;6.97;;;6.37;;
5752;SDS011;2901;42.140;24.760;2024-03-23T01:24:30;8.77;;;6.07;;
5752;SDS011;2901;42.140;24.760;2024-03-23T01:26:55;14.30;;;6.90;;
5752;SDS011;2901;42.140;24.760;2024-03-23T01:29:20;11.50;;;5.97;;
5752;SDS011;2901;42.140;24.760;2024-03-23T01:31:46;6.97;;;6.37;;
5752;SDS011;2901;42.140;24.760;2024-03-23T01:34:11;9.70;;;6.30;;
5752;SDS011;2901;42.140;24.760;2024-03-23T01:36:37;8.97;;;8.13;;
5752;SDS011;2901;42.140;24.760;2024-03-23T01:39:02;10.17;;;7.67;;
5752;SDS011;2901;42.140;24.760;2024-03-23T01:41:28;7.20;;;6.60;;
5752;SDS011;2901;42.140;24.760;2024-03-23T01:43:54;11.57;;;7.57;;
5752;SDS011;2901;42.140;24.760;2024-03-23T01:46:20;11.37;;;7.17;;
5752;SDS011;2901;42.140;24.760;2024-03-23T01:48:46;10.30;;;8.03;;
5752;SDS011;2901;42.140;24.760;2024-03-23T01:51:11;20.77;;;7.83;;
5752;SDS011;2901;42.140;24.760;2024-03-23T01:53:38;8.77;;;7.87;;
5752;SDS011;2901;42.140;24.760;2024-03-23T01:56:03;12.33;;;8.00;;
5752;SDS011;2901;42.140;24.760;2024-03-23T01:58:28;10.43;;;7.70;;
5752;SDS011;2901;42.140;24.760;2024-03-23T02:00:54;14.83;;;7.93;;
5752;SDS011;2901;42.140;24.760;2024-03-23T02:03:23;15.37;;;8.83;;
5752;SDS011;2901;42.140;24.760;2024-03-23T02:05:49;12.97;;;9.03;;
5752;SDS011;2901;42.140;24.760;2024-03-23T02:08:16;10.03;;;8.50;;
5752;SDS011;2901;42.140;24.760;2024-03-23T02:10:43;18.27;;;9.50;;
5752;SDS011;2901;42.140;24.760;2024-03-23T02:13:09;12.00;;;8.83;;
5752;SDS011;2901;42.140;24.760;2024-03-23T02:15:34;10.00;;;8.70;;
5752;SDS011;2901;42.140;24.760;2024-03-23T02:17:59;13.30;;;9.07;;
5752;SDS011;2901;42.140;24.760;2024-03-23T02:20:25;10.63;;;8.67;;
5752;SDS011;2901;42.140;24.760;2024-03-23T02:22:51;11.97;;;9.43;;
5752;SDS011;2901;42.140;24.760;2024-03-23T02:25:18;17.70;;;9.77;;
5752;SDS011;2901;42.140;24.760;2024-03-23T02:27:44;12.37;;;8.97;;
5752;SDS011;2901;42.140;24.760;2024-03-23T02:30:09;10.53;;;9.43;;
5752;SDS011;2901;42.140;24.760;2024-03-23T02:32:35;11.00;;;9.07;;
5752;SDS011;2901;42.140;24.760;2024-03-23T02:35:00;15.73;;;10.33;;
5752;SDS011;2901;42.140;24.760;2024-03-23T02:37:26;11.13;;;8.90;;
5752;SDS011;2901;42.140;24.760;2024-03-23T02:39:51;9.97;;;8.60;;
5752;SDS011;2901;42.140;24.760;2024-03-23T02:42:16;15.23;;;9.00;;
5752;SDS011;2901;42.140;24.760;2024-03-23T02:44:43;13.80;;;9.67;;
5752;SDS011;2901;42.140;24.760;2024-03-23T02:47:10;11.27;;;9.33;;
5752;SDS011;2901;42.140;24.760;2024-03-23T02:49:35;11.83;;;8.77;;
5752;SDS011;2901;42.140;24.760;2024-03-23T02:52:00;17.17;;;8.73;;
5752;SDS011;2901;42.140;24.760;2024-03-23T02:54:26;12.93;;;9.37;;
5752;SDS011;2901;42.140;24.760;2024-03-23T02:56:51;10.60;;;9.23;;
5752;SDS011;2901;42.140;24.760;2024-03-23T02:59:17;12.17;;;9.07;;
5752;SDS011;2901;42.140;24.760;2024-03-23T03:01:42;10.50;;;9.50;;
5752;SDS011;2901;42.140;24.760;2024-03-23T03:04:07;9.73;;;8.77;;
5752;SDS011;2901;42.140;24.760;2024-03-23T03:06:33;14.20;;;9.13;;
5752;SDS011;2901;42.140;24.760;2024-03-23T03:08:58;11.70;;;9.33;;
5752;SDS011;2901;42.140;24.760;2024-03-23T03:11:24;9.40;;;8.60;;
5752;SDS011;2901;42.140;24.760;2024-03-23T03:13:49;16.43;;;9.20;;
5752;SDS011;2901;42.140;24.760;2024-03-23T03:16:15;9.70;;;8.53;;
5752;SDS011;2901;42.140;24.760;2024-03-23T03:18:40;10.23;;;9.37;;
5752;SDS011;2901;42.140;24.760;2024-03-23T03:21:06;9.77;;;8.87;;
5752;SDS011;2901;42.140;24.760;2024-03-23T03:23:36;9.63;;;8.40;;
5752;SDS011;2901;42.140;24.760;2024-03-23T03:26:02;13.97;;;10.07;;
5752;SDS011;2901;42.140;24.760;2024-03-23T03:28:28;10.97;;;9.50;;
5752;SDS011;2901;42.140;24.760;2024-03-23T03:30:55;13.37;;;9.60;;
5752;SDS011;2901;42.140;24.760;2024-03-23T03:33:21;11.50;;;8.53;;
5752;SDS011;2901;42.140;24.760;2024-03-23T03:35:46;18.03;;;10.00;;
5752;SDS011;2901;42.140;24.760;2024-03-23T03:38:12;10.90;;;9.40;;
5752;SDS011;2901;42.140;24.760;2024-03-23T03:40:37;12.00;;;10.67;;
5752;SDS011;2901;42.140;24.760;2024-03-23T03:43:03;10.97;;;9.83;;
5752;SDS011;2901;42.140;24.760;2024-03-23T03:45:28;10.77;;;9.63;;
5752;SDS011;2901;42.140;24.760;2024-03-23T03:47:54;10.00;;;9.20;;
5752;SDS011;2901;42.140;24.760;2024-03-23T03:50:19;12.83;;;8.97;;
5752;SDS011;2901;42.140;24.760;2024-03-23T03:52:46;9.90;;;8.77;;
5752;SDS011;2901;42.140;24.760;2024-03-23T03:55:15;13.80;;;9.07;;
5752;SDS011;2901;42.140;24.760;2024-03-23T03:57:41;16.07;;;9.03;;
5752;SDS011;2901;42.140;24.760;2024-03-23T04:00:07;8.87;;;8.07;;
5752;SDS011;2901;42.140;24.760;2024-03-23T04:02:36;11.07;;;8.73;;
5752;SDS011;2901;42.140;24.760;2024-03-23T04:05:02;10.63;;;8.40;;
5752;SDS011;2901;42.140;24.760;2024-03-23T04:07:28;9.40;;;8.40;;
5752;SDS011;2901;42.140;24.760;2024-03-23T04:09:53;9.57;;;8.60;;
5752;SDS011;2901;42.140;24.760;2024-03-23T04:12:19;13.77;;;8.47;;
5752;SDS011;2901;42.140;24.760;2024-03-23T04:14:45;11.27;;;8.50;;
5752;SDS011;2901;42.140;24.760;2024-03-23T04:17:10;12.40;;;8.80;;
5752;SDS011;2901;42.140;24.760;2024-03-23T04:19:36;13.27;;;8.43;;
5752;SDS011;2901;42.140;24.760;2024-03-23T04:22:01;10.50;;;7.77;;
5752;SDS011;2901;42.140;24.760;2024-03-23T04:24:27;14.10;;;8.83;;
5752;SDS011;2901;42.140;24.760;2024-03-23T04:26:53;13.20;;;8.13;;
5752;SDS011;2901;42.140;24.760;2024-03-23T04:29:19;8.53;;;7.77;;
5752;SDS011;2901;42.140;24.760;2024-03-23T04:31:44;10.13;;;7.67;;
5752;SDS011;2901;42.140;24.760;2024-03-23T04:34:10;11.47;;;8.20;;
5752;SDS011;2901;42.140;24.760;2024-03-23T04:36:35;8.37;;;7.80;;
5752;SDS011;2901;42.140;24.760;2024-03-23T04:39:00;9.53;;;7.77;;
5752;SDS011;2901;42.140;24.760;2024-03-23T04:41:26;9.03;;;7.80;;
5752;SDS011;2901;42.140;24.760;2024-03-23T04:43:51;8.00;;;7.33;;
5752;SDS011;2901;42.140;24.760;2024-03-23T04:46:17;7.80;;;7.07;;
5752;SDS011;2901;42.140;24.760;2024-03-23T04:48:42;8.00;;;7.30;;
5752;SDS011;2901;42.140;24.760;2024-03-23T04:51:09;6.90;;;6.40;;
5752;SDS011;2901;42.140;24.760;2024-03-23T04:53:37;7.73;;;6.77;;
5752;SDS011;2901;42.140;24.760;2024-03-23T04:56:03;7.83;;;7.13;;
5752;SDS011;2901;42.140;24.760;2024-03-23T04:58:29;8.27;;;7.53;;
5752;SDS011;2901;42.140;24.760;2024-03-23T05:00:55;7.63;;;7.17;;
5752;SDS011;2901;42.140;24.760;2024-03-23T05:03:21;7.43;;;6.97;;
5752;SDS011;2901;42.140;24.760;2024-03-23T05:05:47;7.60;;;6.97;;
5752;SDS011;2901;42.140;24.760;2024-03-23T05:08:13;8.37;;;7.23;;
5752;SDS011;2901;42.140;24.760;2024-03-23T05:10:40;6.60;;;6.17;;
5752;SDS011;2901;42.140;24.760;2024-03-23T05:13:06;8.87;;;7.27;;
5752;SDS011;2901;42.140;24.760;2024-03-23T05:15:32;8.37;;;6.40;;
5752;SDS011;2901;42.140;24.760;2024-03-23T05:17:57;8.00;;;6.60;;
5752;SDS011;2901;42.140;24.760;2024-03-23T05:20:23;6.87;;;6.23;;
5752;SDS011;2901;42.140;24.760;2024-03-23T05:22:49;7.43;;;6.87;;
5752;SDS011;2901;42.140;24.760;2024-03-23T05:25:14;8.00;;;7.00;;
5752;SDS011;2901;42.140;24.760;2024-03-23T05:27:41;6.00;;;5.50;;
5752;SDS011;2901;42.140;24.760;2024-03-23T05:30:06;6.40;;;5.90;;
5752;SDS011;2901;42.140;24.760;2024-03-23T05:32:34;6.87;;;6.27;;
5752;SDS011;2901;42.140;24.760;2024-03-23T05:34:59;6.13;;;5.63;;
5752;SDS011;2901;42.140;24.760;2024-03-23T05:37:24;6.73;;;6.27;;
5752;SDS011;2901;42.140;24.760;2024-03-23T05:39:50;6.70;;;6.20;;
5752;SDS011;2901;42.140;24.760;2024-03-23T05:42:16;6.60;;;6.20;;
5752;SDS011;2901;42.140;24.760;2024-03-23T05:44:45;6.90;;;6.30;;
5752;SDS011;2901;42.140;24.760;2024-03-23T05:47:11;7.87;;;7.17;;
5752;SDS011;2901;42.140;24.760;2024-03-23T05:49:39;7.77;;;6.60;;
5752;SDS011;2901;42.140;24.760;2024-03-23T05:52:06;6.60;;;6.17;;
5752;SDS011;2901;42.140;24.760;2024-03-23T05:54:33;8.23;;;7.40;;
5752;SDS011;2901;42.140;24.760;2024-03-23T05:56:58;7.27;;;6.60;;
5752;SDS011;2901;42.140;24.760;2024-03-23T05:59:24;8.33;;;7.53;;
5752;SDS011;2901;42.140;24.760;2024-03-23T06:01:49;8.23;;;7.13;;
5752;SDS011;2901;42.140;24.760;2024-03-23T06:04:15;7.83;;;7.20;;
5752;SDS011;2901;42.140;24.760;2024-03-23T06:06:40;8.20;;;7.03;;
5752;SDS011;2901;42.140;24.760;2024-03-23T06:09:06;8.10;;;6.90;;
5752;SDS011;2901;42.140;24.760;2024-03-23T06:11:31;12.67;;;6.70;;
5752;SDS011;2901;42.140;24.760;2024-03-23T06:13:56;12.40;;;6.47;;
5752;SDS011;2901;42.140;24.760;2024-03-23T06:16:22;7.40;;;6.60;;
5752;SDS011;2901;42.140;24.760;2024-03-23T06:18:52;10.17;;;7.13;;
5752;SDS011;2901;42.140;24.760;2024-03-23T06:21:17;8.70;;;7.82;;
5752;SDS011;2901;42.140;24.760;2024-03-23T06:23:43;7.17;;;6.57;;
5752;SDS011;2901;42.140;24.760;2024-03-23T06:26:13;6.87;;;6.30;;
5752;SDS011;2901;42.140;24.760;2024-03-23T06:28:38;7.63;;;6.93;;
5752;SDS011;2901;42.140;24.760;2024-03-23T06:31:08;7.10;;;6.53;;
5752;SDS011;2901;42.140;24.760;2024-03-23T06:33:34;7.10;;;6.57;;
5752;SDS011;2901;42.140;24.760;2024-03-23T06:36:00;7.90;;;7.15;;
5752;SDS011;2901;42.140;24.760;2024-03-23T06:38:25;10.30;;;8.27;;
5752;SDS011;2901;42.140;24.760;2024-03-23T06:40:51;13.97;;;7.37;;
5752;SDS011;2901;42.140;24.760;2024-03-23T06:43:17;7.03;;;6.50;;
5752;SDS011;2901;42.140;24.760;2024-03-23T06:45:43;8.43;;;7.53;;
5752;SDS011;2901;42.140;24.760;2024-03-23T06:48:09;10.50;;;7.63;;
5752;SDS011;2901;42.140;24.760;2024-03-23T06:50:34;15.38;;;7.82;;
5752;SDS011;2901;42.140;24.760;2024-03-23T06:52:59;13.48;;;9.68;;
5752;SDS011;2901;42.140;24.760;2024-03-23T06:55:27;12.83;;;8.03;;
5752;SDS011;2901;42.140;24.760;2024-03-23T06:57:55;12.13;;;7.25;;
5752;SDS011;2901;42.140;24.760;2024-03-23T07:00:20;7.57;;;6.80;;
5752;SDS011;2901;42.140;24.760;2024-03-23T07:02:45;13.57;;;7.07;;
5752;SDS011;2901;42.140;24.760;2024-03-23T07:05:11;13.38;;;8.05;;
5752;SDS011;2901;42.140;24.760;2024-03-23T07:07:37;8.25;;;7.43;;
5752;SDS011;2901;42.140;24.760;2024-03-23T07:10:04;8.05;;;7.22;;
5752;SDS011;2901;42.140;24.760;2024-03-23T07:12:30;7.32;;;6.72;;
5752;SDS011;2901;42.140;24.760;2024-03-23T07:14:55;10.30;;;7.57;;
5752;SDS011;2901;42.140;24.760;2024-03-23T07:17:21;8.02;;;7.28;;
5752;SDS011;2901;42.140;24.760;2024-03-23T07:19:46;8.98;;;7.53;;
5752;SDS011;2901;42.140;24.760;2024-03-23T07:22:12;9.32;;;7.60;;
5752;SDS011;2901;42.140;24.760;2024-03-23T07:24:38;8.27;;;7.47;;
5752;SDS011;2901;42.140;24.760;2024-03-23T07:27:05;8.23;;;7.45;;
5752;SDS011;2901;42.140;24.760;2024-03-23T07:29:30;7.80;;;7.07;;
5752;SDS011;2901;42.140;24.760;2024-03-23T07:31:56;10.10;;;6.60;;
5752;SDS011;2901;42.140;24.760;2024-03-23T07:34:22;8.25;;;7.45;;
5752;SDS011;2901;42.140;24.760;2024-03-23T07:36:47;7.78;;;7.05;;
5752;SDS011;2901;42.140;24.760;2024-03-23T07:39:12;7.43;;;6.50;;
5752;SDS011;2901;42.140;24.760;2024-03-23T07:41:38;6.65;;;6.10;;
5752;SDS011;2901;42.140;24.760;2024-03-23T07:44:03;8.70;;;7.47;;
5752;SDS011;2901;42.140;24.760;2024-03-23T07:46:29;7.65;;;7.00;;
5752;SDS011;2901;42.140;24.760;2024-03-23T07:48:54;8.20;;;6.72;;
5752;SDS011;2901;42.140;24.760;2024-03-23T07:51:22;8.15;;;7.40;;
5752;SDS011;2901;42.140;24.760;2024-03-23T07:53:48;7.35;;;6.85;;
5752;SDS011;2901;42.140;24.760;2024-03-23T07:56:14;7.57;;;6.65;;
5752;SDS011;2901;42.140;24.760;2024-03-23T07:58:41;9.45;;;6.40;;
5752;SDS011;2901;42.140;24.760;2024-03-23T08:01:07;6.00;;;5.70;;
5752;SDS011;2901;42.140;24.760;2024-03-23T08:03:37;5.97;;;5.15;;
5752;SDS011;2901;42.140;24.760;2024-03-23T08:06:10;5.97;;;5.38;;
5752;SDS011;2901;42.140;24.760;2024-03-23T08:08:37;7.35;;;6.75;;
5752;SDS011;2901;42.140;24.760;2024-03-23T08:11:04;7.45;;;6.80;;
5752;SDS011;2901;42.140;24.760;2024-03-23T08:13:29;6.55;;;6.15;;
5752;SDS011;2901;42.140;24.760;2024-03-23T08:15:58;6.85;;;6.15;;
5752;SDS011;2901;42.140;24.760;2024-03-23T08:18:24;13.75;;;7.07;;
5752;SDS011;2901;42.140;24.760;2024-03-23T08:21:03;15.82;;;11.63;;
5752;SDS011;2901;42.140;24.760;2024-03-23T08:23:30;13.27;;;8.00;;
5752;SDS011;2901;42.140;24.760;2024-03-23T08:25:59;8.48;;;7.72;;
5752;SDS011;2901;42.140;24.760;2024-03-23T08:28:26;7.63;;;7.13;;
5752;SDS011;2901;42.140;24.760;2024-03-23T08:30:55;5.05;;;4.65;;
5752;SDS011;2901;42.140;24.760;2024-03-23T08:33:21;7.82;;;5.60;;
5752;SDS011;2901;42.140;24.760;2024-03-23T08:35:56;9.65;;;4.60;;
5752;SDS011;2901;42.140;24.760;2024-03-23T08:38:31;7.30;;;5.68;;
5752;SDS011;2901;42.140;24.760;2024-03-23T08:41:00;5.82;;;5.43;;
5752;SDS011;2901;42.140;24.760;2024-03-23T08:43:27;10.30;;;7.93;;
5752;SDS011;2901;42.140;24.760;2024-03-23T08:46:02;8.95;;;8.25;;
5752;SDS011;2901;42.140;24.760;2024-03-23T08:48:28;10.15;;;8.40;;
5752;SDS011;2901;42.140;24.760;2024-03-23T08:51:03;7.95;;;7.30;;
5752;SDS011;2901;42.140;24.760;2024-03-23T08:53:29;9.73;;;7.88;;
5752;SDS011;2901;42.140;24.760;2024-03-23T08:55:58;8.93;;;6.53;;
5752;SDS011;2901;42.140;24.760;2024-03-23T08:58:26;7.18;;;6.57;;
5752;SDS011;2901;42.140;24.760;2024-03-23T09:00:52;7.60;;;6.22;;
5752;SDS011;2901;42.140;24.760;2024-03-23T09:03:21;7.28;;;6.10;;
5752;SDS011;2901;42.140;24.760;2024-03-23T09:05:50;6.85;;;6.15;;
5752;SDS011;2901;42.140;24.760;2024-03-23T09:08:16;7.15;;;6.60;;
5752;SDS011;2901;42.140;24.760;2024-03-23T09:10:42;7.07;;;6.55;;
5752;SDS011;2901;42.140;24.760;2024-03-23T09:13:08;8.15;;;6.25;;
5752;SDS011;2901;42.140;24.760;2024-03-23T09:15:34;11.90;;;6.22;;
5752;SDS011;2901;42.140;24.760;2024-03-23T09:18:01;5.95;;;5.55;;
5752;SDS011;2901;42.140;24.760;2024-03-23T09:20:27;6.63;;;6.03;;
5752;SDS011;2901;42.140;24.760;2024-03-23T09:22:53;6.00;;;5.15;;
5752;SDS011;2901;42.140;24.760;2024-03-23T09:25:18;7.60;;;5.68;;
5752;SDS011;2901;42.140;24.760;2024-03-23T09:27:45;12.27;;;5.82;;
5752;SDS011;2901;42.140;24.760;2024-03-23T09:30:14;7.03;;;6.22;;
5752;SDS011;2901;42.140;24.760;2024-03-23T09:32:43;6.05;;;5.68;;
5752;SDS011;2901;42.140;24.760;2024-03-23T09:35:09;7.28;;;6.55;;
5752;SDS011;2901;42.140;24.760;2024-03-23T09:37:35;6.78;;;6.13;;
5752;SDS011;2901;42.140;24.760;2024-03-23T09:40:00;8.48;;;5.68;;
5752;SDS011;2901;42.140;24.760;2024-03-23T09:42:26;6.25;;;5.65;;
5752;SDS011;2901;42.140;24.760;2024-03-23T09:44:51;9.18;;;5.93;;
5752;SDS011;2901;42.140;24.760;2024-03-23T09:47:20;7.05;;;5.95;;
5752;SDS011;2901;42.140;24.760;2024-03-23T09:49:46;9.60;;;6.15;;
5752;SDS011;2901;42.140;24.760;2024-03-23T09:52:11;6.00;;;5.50;;
5752;SDS011;2901;42.140;24.760;2024-03-23T09:54:36;5.75;;;5.45;;
5752;SDS011;2901;42.140;24.760;2024-03-23T09:57:02;6.40;;;5.82;;
5752;SDS011;2901;42.140;24.760;2024-03-23T09:59:29;6.40;;;5.90;;
5752;SDS011;2901;42.140;24.760;2024-03-23T10:01:54;12.35;;;5.35;;
5752;SDS011;2901;42.140;24.760;2024-03-23T10:04:40;5.93;;;5.43;;
5752;SDS011;2901;42.140;24.760;2024-03-23T10:07:17;5.75;;;5.20;;
5752;SDS011;2901;42.140;24.760;2024-03-23T10:09:44;6.00;;;5.57;;
5752;SDS011;2901;42.140;24.760;2024-03-23T10:12:13;5.30;;;5.00;;
5752;SDS011;2901;42.140;24.760;2024-03-23T10:14:40;6.55;;;5.35;;
5752;SDS011;2901;42.140;24.760;2024-03-23T10:17:18;8.25;;;4.63;;
5752;SDS011;2901;42.140;24.760;2024-03-23T10:19:51;5.93;;;5.53;;
5752;SDS011;2901;42.140;24.760;2024-03-23T10:24:47;6.60;;;5.50;;
5752;SDS011;2901;42.140;24.760;2024-03-23T10:27:17;7.18;;;5.50;;
5752;SDS011;2901;42.140;24.760;2024-03-23T10:29:46;5.45;;;4.78;;
5752;SDS011;2901;42.140;24.760;2024-03-23T10:32:13;8.63;;;5.43;;
5752;SDS011;2901;42.140;24.760;2024-03-23T10:34:39;4.88;;;4.57;;
5752;SDS011;2901;42.140;24.760;2024-03-23T10:37:05;5.28;;;4.82;;
5752;SDS011;2901;42.140;24.760;2024-03-23T10:39:40;5.57;;;5.07;;
5752;SDS011;2901;42.140;24.760;2024-03-23T10:42:07;4.90;;;4.53;;
5752;SDS011;2901;42.140;24.760;2024-03-23T10:44:35;5.18;;;4.88;;
5752;SDS011;2901;42.140;24.760;2024-03-23T10:47:01;7.18;;;6.60;;
5752;SDS011;2901;42.140;24.760;2024-03-23T10:49:34;5.03;;;4.72;;
5752;SDS011;2901;42.140;24.760;2024-03-23T10:52:01;4.35;;;4.15;;
5752;SDS011;2901;42.140;24.760;2024-03-23T10:54:31;5.13;;;4.82;;
5752;SDS011;2901;42.140;24.760;2024-03-23T10:57:05;4.90;;;4.43;;
5752;SDS011;2901;42.140;24.760;2024-03-23T10:59:33;6.75;;;4.38;;
5752;SDS011;2901;42.140;24.760;2024-03-23T11:02:02;14.35;;;5.90;;
5752;SDS011;2901;42.140;24.760;2024-03-23T11:04:32;6.47;;;4.20;;
5752;SDS011;2901;42.140;24.760;2024-03-23T11:07:03;5.68;;;5.15;;
5752;SDS011;2901;42.140;24.760;2024-03-23T11:09:49;4.97;;;3.83;;
5752;SDS011;2901;42.140;24.760;2024-03-23T11:15:11;4.57;;;4.28;;
5752;SDS011;2901;42.140;24.760;2024-03-23T11:17:37;4.90;;;4.50;;
5752;SDS011;2901;42.140;24.760;2024-03-23T11:20:04;6.65;;;4.70;;
5752;SDS011;2901;42.140;24.760;2024-03-23T11:22:40;4.22;;;3.97;;
5752;SDS011;2901;42.140;24.760;2024-03-23T11:25:14;4.45;;;3.80;;
5752;SDS011;2901;42.140;24.760;2024-03-23T11:27:46;5.07;;;4.72;;
5752;SDS011;2901;42.140;24.760;2024-03-23T11:30:23;3.60;;;3.40;;
5752;SDS011;2901;42.140;24.760;2024-03-23T11:32:50;3.92;;;3.60;;
5752;SDS011;2901;42.140;24.760;2024-03-23T11:38:01;3.88;;;3.67;;
5752;SDS011;2901;42.140;24.760;2024-03-23T11:40:26;4.53;;;4.22;;
5752;SDS011;2901;42.140;24.760;2024-03-23T11:42:55;4.38;;;4.18;;
5752;SDS011;2901;42.140;24.760;2024-03-23T11:45:21;4.18;;;3.65;;
5752;SDS011;2901;42.140;24.760;2024-03-23T11:47:46;3.95;;;3.65;;
5752;SDS011;2901;42.140;24.760;2024-03-23T11:50:19;4.03;;;3.83;;
5752;SDS011;2901;42.140;24.760;2024-03-23T11:52:45;3.90;;;3.70;;
5752;SDS011;2901;42.140;24.760;2024-03-23T11:55:10;4.03;;;3.70;;
5752;SDS011;2901;42.140;24.760;2024-03-23T11:57:35;6.82;;;4.13;;
5752;SDS011;2901;42.140;24.760;2024-03-23T12:00:01;5.28;;;4.63;;
5752;SDS011;2901;42.140;24.760;2024-03-23T12:02:26;5.47;;;4.95;;
5752;SDS011;2901;42.140;24.760;2024-03-23T12:04:52;4.43;;;4.13;;
5752;SDS011;2901;42.140;24.760;2024-03-23T12:07:18;7.15;;;3.80;;
5752;SDS011;2901;42.140;24.760;2024-03-23T12:09:46;3.97;;;3.45;;
5752;SDS011;2901;42.140;24.760;2024-03-23T12:12:18;4.88;;;4.13;;
5752;SDS011;2901;42.140;24.760;2024-03-23T12:17:13;4.30;;;4.10;;
5752;SDS011;2901;42.140;24.760;2024-03-23T12:19:40;4.10;;;3.75;;
5752;SDS011;2901;42.140;24.760;2024-03-23T12:22:06;4.40;;;4.00;;
5752;SDS011;2901;42.140;24.760;2024-03-23T12:24:35;4.03;;;3.72;;
5752;SDS011;2901;42.140;24.760;2024-03-23T12:27:04;3.55;;;3.35;;
5752;SDS011;2901;42.140;24.760;2024-03-23T12:29:30;3.63;;;3.42;;
5752;SDS011;2901;42.140;24.760;2024-03-23T12:31:58;3.58;;;3.28;;
5752;SDS011;2901;42.140;24.760;2024-03-23T12:34:25;4.00;;;3.70;;
5752;SDS011;2901;42.140;24.760;2024-03-23T12:36:50;3.30;;;3.20;;
5752;SDS011;2901;42.140;24.760;2024-03-23T12:39:15;3.58;;;3.28;;
5752;SDS011;2901;42.140;24.760;2024-03-23T12:41:41;3.08;;;2.88;;
5752;SDS011;2901;42.140;24.760;2024-03-23T12:44:06;2.72;;;2.63;;
5752;SDS011;2901;42.140;24.760;2024-03-23T12:46:33;5.38;;;2.95;;
5752;SDS011;2901;42.140;24.760;2024-03-23T12:48:59;4.55;;;3.80;;
5752;SDS011;2901;42.140;24.760;2024-03-23T12:51:24;4.80;;;4.32;;
5752;SDS011;2901;42.140;24.760;2024-03-23T12:53:50;6.00;;;3.17;;
5752;SDS011;2901;42.140;24.760;2024-03-23T12:56:15;4.75;;;3.15;;
5752;SDS011;2901;42.140;24.760;2024-03-23T12:58:41;3.90;;;2.97;;
5752;SDS011;2901;42.140;24.760;2024-03-23T13:01:06;4.43;;;4.22;;
5752;SDS011;2901;42.140;24.760;2024-03-23T13:03:31;2.75;;;2.65;;
5752;SDS011;2901;42.140;24.760;2024-03-23T13:05:57;5.72;;;3.40;;
5752;SDS011;2901;42.140;24.760;2024-03-23T13:08:22;2.92;;;2.78;;
5752;SDS011;2901;42.140;24.760;2024-03-23T13:10:51;3.38;;;3.17;;
5752;SDS011;2901;42.140;24.760;2024-03-23T13:13:17;3.33;;;3.13;;
5752;SDS011;2901;42.140;24.760;2024-03-23T13:15:42;3.47;;;3.17;;
5752;SDS011;2901;42.140;24.760;2024-03-23T13:18:07;6.55;;;3.72;;
5752;SDS011;2901;42.140;24.760;2024-03-23T13:20:35;6.07;;;4.00;;
5752;SDS011;2901;42.140;24.760;2024-03-23T13:23:01;3.63;;;3.42;;
5752;SDS011;2901;42.140;24.760;2024-03-23T13:25:26;3.78;;;3.58;;
5752;SDS011;2901;42.140;24.760;2024-03-23T13:27:52;4.05;;;3.85;;
5752;SDS011;2901;42.140;24.760;2024-03-23T13:30:17;4.40;;;3.70;;
5752;SDS011;2901;42.140;24.760;2024-03-23T13:32:42;7.60;;;4.40;;
5752;SDS011;2901;42.140;24.760;2024-03-23T13:35:08;4.55;;;4.35;;
5752;SDS011;2901;42.140;24.760;2024-03-23T13:37:33;7.35;;;6.57;;
5752;SDS011;2901;42.140;24.760;2024-03-23T13:39:59;7.10;;;6.55;;
5752;SDS011;2901;42.140;24.760;2024-03-23T13:42:24;6.70;;;6.20;;
5752;SDS011;2901;42.140;24.760;2024-03-23T13:44:51;6.88;;;6.47;;
5752;SDS011;2901;42.140;24.760;2024-03-23T13:47:16;7.63;;;6.97;;
5752;SDS011;2901;42.140;24.760;2024-03-23T13:49:41;7.47;;;6.72;;
5752;SDS011;2901;42.140;24.760;2024-03-23T13:52:07;7.07;;;6.47;;
5752;SDS011;2901;42.140;24.760;2024-03-23T13:54:33;7.82;;;7.10;;
5752;SDS011;2901;42.140;24.760;2024-03-23T13:56:58;5.38;;;4.97;;
5752;SDS011;2901;42.140;24.760;2024-03-23T13:59:24;5.95;;;4.85;;
5752;SDS011;2901;42.140;24.760;2024-03-23T14:01:49;5.18;;;4.80;;
5752;SDS011;2901;42.140;24.760;2024-03-23T14:04:16;5.15;;;3.65;;
5752;SDS011;2901;42.140;24.760;2024-03-23T14:06:45;4.63;;;3.55;;
5752;SDS011;2901;42.140;24.760;2024-03-23T14:09:14;4.30;;;3.38;;
5752;SDS011;2901;42.140;24.760;2024-03-23T14:11:45;4.70;;;3.63;;
5752;SDS011;2901;42.140;24.760;2024-03-23T14:14:10;3.88;;;3.47;;
5752;SDS011;2901;42.140;24.760;2024-03-23T14:16:35;6.57;;;3.13;;
5752;SDS011;2901;42.140;24.760;2024-03-23T14:19:01;3.47;;;2.40;;
5752;SDS011;2901;42.140;24.760;2024-03-23T14:21:27;2.83;;;2.63;;
5752;SDS011;2901;42.140;24.760;2024-03-23T14:23:52;3.53;;;2.22;;
5752;SDS011;2901;42.140;24.760;2024-03-23T14:26:18;3.13;;;2.85;;
5752;SDS011;2901;42.140;24.760;2024-03-23T14:28:44;3.42;;;2.85;;
5752;SDS011;2901;42.140;24.760;2024-03-23T14:31:09;13.27;;;12.00;;
5752;SDS011;2901;42.140;24.760;2024-03-23T14:33:37;3.42;;;3.15;;
5752;SDS011;2901;42.140;24.760;2024-03-23T14:36:06;3.15;;;2.85;;
5752;SDS011;2901;42.140;24.760;2024-03-23T14:38:32;3.33;;;3.00;;
5752;SDS011;2901;42.140;24.760;2024-03-23T14:41:00;3.78;;;3.58;;
5752;SDS011;2901;42.140;24.760;2024-03-23T14:43:27;4.05;;;2.70;;
5752;SDS011;2901;42.140;24.760;2024-03-23T14:48:41;2.97;;;1.95;;
5752;SDS011;2901;42.140;24.760;2024-03-23T14:51:09;2.22;;;2.13;;
5752;SDS011;2901;42.140;24.760;2024-03-23T14:53:36;2.75;;;2.53;;
5752;SDS011;2901;42.140;24.760;2024-03-23T14:56:04;2.80;;;2.17;;
5752;SDS011;2901;42.140;24.760;2024-03-23T14:58:30;3.10;;;1.70;;
5752;SDS011;2901;42.140;24.760;2024-03-23T15:01:05;4.93;;;2.03;;
5752;SDS011;2901;42.140;24.760;2024-03-23T15:03:35;2.20;;;2.10;;
5752;SDS011;2901;42.140;24.760;2024-03-23T15:06:08;3.50;;;1.85;;
5752;SDS011;2901;42.140;24.760;2024-03-23T15:08:36;2.30;;;2.20;;
5752;SDS011;2901;42.140;24.760;2024-03-23T15:11:03;2.08;;;1.98;;
5752;SDS011;2901;42.140;24.760;2024-03-23T15:13:32;3.88;;;2.38;;
5752;SDS011;2901;42.140;24.760;2024-03-23T15:15:58;5.18;;;2.15;;
5752;SDS011;2901;42.140;24.760;2024-03-23T15:18:24;2.00;;;1.90;;
5752;SDS011;2901;42.140;24.760;2024-03-23T15:23:34;2.33;;;2.20;;
5752;SDS011;2901;42.140;24.760;2024-03-23T15:26:00;2.50;;;2.40;;
5752;SDS011;2901;42.140;24.760;2024-03-23T15:28:26;3.15;;;2.30;;
5752;SDS011;2901;42.140;24.760;2024-03-23T15:31:11;5.75;;;2.00;;
5752;SDS011;2901;42.140;24.760;2024-03-23T15:33:36;3.00;;;2.08;;
5752;SDS011;2901;42.140;24.760;2024-03-23T15:36:02;2.05;;;1.95;;
5752;SDS011;2901;42.140;24.760;2024-03-23T15:38:28;3.50;;;2.40;;
5752;SDS011;2901;42.140;24.760;2024-03-23T15:40:54;2.45;;;2.13;;
5752;SDS011;2901;42.140;24.760;2024-03-23T15:43:20;7.32;;;2.47;;
5752;SDS011;2901;42.140;24.760;2024-03-23T15:45:58;3.55;;;2.42;;
5752;SDS011;2901;42.140;24.760;2024-03-23T15:48:25;2.55;;;2.40;;
5752;SDS011;2901;42.140;24.760;2024-03-23T15:51:02;4.07;;;2.55;;
5752;SDS011;2901;42.140;24.760;2024-03-23T15:53:29;3.50;;;3.30;;
5752;SDS011;2901;42.140;24.760;2024-03-23T15:58:21;5.35;;;1.98;;
5752;SDS011;2901;42.140;24.760;2024-03-23T16:01:03;3.08;;;2.00;;
5752;SDS011;2901;42.140;24.760;2024-03-23T16:03:31;2.45;;;2.13;;
5752;SDS011;2901;42.140;24.760;2024-03-23T16:06:05;2.65;;;2.33;;
5752;SDS011;2901;42.140;24.760;2024-03-23T16:08:32;2.47;;;2.20;;